FOLSOM LAKE (FOL)

Elevation: 466' · AMERICAN R basin · Operator: US Bureau of Reclamation

Provisional data, subject to change.
Query executed Friday at 11:15:41   clock

Select a sensor type for a plot of data.
Note: Reservoir Flows are daily averages.

Earlier

Date RES ELE    STORAGE    RES CHG    TOC STO    ABV TOC    OUTFLOW    INFLOW    EVAP    FNF    RIV REL    PPT INC    SPILL    DC PUMP    DIS PWR   
 FEET   AF   AF   AF   AF   CFS   CFS   CFS   CFS   CFS   INCHES   CFS   CFS   CFS  
10/01/2014 394.24 342360 -2624 968840 -626480 1843 562 42 65 e 0 0.00 0 138 1705
10/02/2014 393.95 340552 -1808 960670 -620118 1236 359 35 65 e 0 0.00 0 136 1100
10/03/2014 393.75 339318 -1234 952510 -- 1248 661 35 65 e 0 0.00 0 136 1112
10/04/2014 393.70 339009 -309 944350 -- 1175 1060 41 65 e 0 0.00 0 136 1039
10/05/2014 393.54 338022 -987 936180 -598158 1239 780 39 52 e 0 0.00 0 146 1093
10/06/2014 393.43 337343 -679 928020 -590677 1363 1058 37 52 e 0 0.00 0 147 1216
10/07/2014 393.29 336479 -864 919860 -583381 1549 1150 37 52 e 0 0.00 0 145 1404
10/08/2014 393.12 335430 -1049 911690 -- 1251 761 39 52 e 0 0.00 0 146 1105
10/09/2014 392.94 334323 -1107 903530 -569207 1284 738 12 52 e 0 0.00 0 132 1152
10/10/2014 392.72 332981 -1342 895370 -- 1229 564 12 52 e 0 0.00 0 140 1089
10/11/2014 392.56 332005 -976 887200 -- 1246 781 27 43 e 0 0.00 0 143 1103
10/12/2014 392.30 330420 -1585 879041 -- 1199 426 26 43 e 0 0.00 0 149 1050
10/13/2014 392.16 329566 -854 870878 -541314 1268 863 26 43 e 0 0.00 0 144 1124
10/14/2014 391.97 328409 -1157 862714 -534301 1274 723 32 43 e 0 0.00 0 133 1141
10/15/2014 391.92 328108 -301 854551 -526443 r 993 841 0 43 e 0 0.10 0 116 877
10/16/2014 391.89 327927 -181 846388 -518461 982 891 0 29 e 0 0.10 0 109 873
10/17/2014 391.82 327505 -422 838224 -- 770 577 20 29 e 0 0.00 0 101 669
10/18/2014 391.59 326119 -1386 830061 -- 1176 501 24 29 e 0 0.00 0 114 1062
10/19/2014 391.32 324492 -1627 821898 -497406 1124 328 24 29 e 0 0.00 0 127 997
10/20/2014 390.92 322088 -2404 813735 -491647 1739 549 22 55 73 0.00 0 122 1544
10/21/2014 390.56 319946 -2142 805571 -485625 1455 389 14 42 e 167 0.00 0 114 1174
10/22/2014 390.36 318755 -1191 797408 -478653 800 220 20 42 e 267 0.00 0 122 411
10/23/2014 390.02 316732 -2023 789245 -472513 1311 311 20 43 e 377 0.00 0 121 813
10/24/2014 389.75 315143 -1589 781082 -- 1265 478 14 93 e 471 0.00 0 116 678
10/25/2014 389.54 313909 -1234 772918 -- 1073 465 14 101 e 498 0.00 0 105 470
10/26/2014 389.25 312204 -1705 764755 -452551 1231 385 14 70 e 498 0.00 0 102 631
10/27/2014 388.90 310154 -2050 756592 -446438 1304 291 21 54 e 498 0.00 0 105 701
10/28/2014 388.60 308412 -1742 748429 -440017 1164 307 21 -- 497 0.00 0 102 565
10/29/2014 388.34 306903 -1509 740265 -433362 1075 333 19 -- 497 0.00 0 110 468
10/30/2014 388.08 305393 -1510 732102 -426709 977 229 13 -- 497 0.00 0 105 375
10/31/2014 -- -- -- -- -- -- -- -- -- -- -- -- -- --

Later | Latest

Warning! This data is preliminary and subject to revision.

Show FOL Map | Plot FOL Data | 1 Month FOL Data | Real-Time FOL Data | FOL Info